sensor_id;sensor_type;location;lat;lon;timestamp;P1;durP1;ratioP1;P2;durP2;ratioP2
33844;SDS011;20145;43.118;25.694;2022-07-21T00:01:04;4.18;;;2.38;;
33844;SDS011;20145;43.118;25.694;2022-07-21T00:03:30;6.53;;;2.28;;
33844;SDS011;20145;43.118;25.694;2022-07-21T00:05:56;3.10;;;2.47;;
33844;SDS011;20145;43.118;25.694;2022-07-21T00:08:21;3.97;;;2.05;;
33844;SDS011;20145;43.118;25.694;2022-07-21T00:10:47;1.90;;;1.80;;
33844;SDS011;20145;43.118;25.694;2022-07-21T00:13:13;5.93;;;2.22;;
33844;SDS011;20145;43.118;25.694;2022-07-21T00:15:39;7.65;;;2.38;;
33844;SDS011;20145;43.118;25.694;2022-07-21T00:18:04;2.05;;;1.90;;
33844;SDS011;20145;43.118;25.694;2022-07-21T00:20:31;2.90;;;1.73;;
33844;SDS011;20145;43.118;25.694;2022-07-21T00:22:57;5.45;;;2.78;;
33844;SDS011;20145;43.118;25.694;2022-07-21T00:25:23;1.95;;;1.80;;
33844;SDS011;20145;43.118;25.694;2022-07-21T00:27:49;3.97;;;1.95;;
33844;SDS011;20145;43.118;25.694;2022-07-21T00:30:15;6.55;;;2.30;;
33844;SDS011;20145;43.118;25.694;2022-07-21T00:32:41;4.25;;;2.28;;
33844;SDS011;20145;43.118;25.694;2022-07-21T00:35:07;3.00;;;2.08;;
33844;SDS011;20145;43.118;25.694;2022-07-21T00:37:35;4.65;;;2.05;;
33844;SDS011;20145;43.118;25.694;2022-07-21T00:40:01;5.13;;;2.58;;
33844;SDS011;20145;43.118;25.694;2022-07-21T00:42:27;2.80;;;2.50;;
33844;SDS011;20145;43.118;25.694;2022-07-21T00:44:55;3.40;;;1.95;;
33844;SDS011;20145;43.118;25.694;2022-07-21T00:47:22;3.10;;;2.13;;
33844;SDS011;20145;43.118;25.694;2022-07-21T00:49:50;5.28;;;1.95;;
33844;SDS011;20145;43.118;25.694;2022-07-21T00:52:16;3.22;;;2.20;;
33844;SDS011;20145;43.118;25.694;2022-07-21T00:54:42;7.50;;;2.03;;
33844;SDS011;20145;43.118;25.694;2022-07-21T00:57:08;3.70;;;2.10;;
33844;SDS011;20145;43.118;25.694;2022-07-21T00:59:35;4.65;;;2.03;;
33844;SDS011;20145;43.118;25.694;2022-07-21T01:02:01;6.43;;;2.45;;
33844;SDS011;20145;43.118;25.694;2022-07-21T01:04:27;4.13;;;2.40;;
33844;SDS011;20145;43.118;25.694;2022-07-21T01:06:53;2.85;;;2.15;;
33844;SDS011;20145;43.118;25.694;2022-07-21T01:09:20;2.97;;;2.25;;
33844;SDS011;20145;43.118;25.694;2022-07-21T01:11:46;3.58;;;2.03;;
33844;SDS011;20145;43.118;25.694;2022-07-21T01:14:12;2.78;;;2.15;;
33844;SDS011;20145;43.118;25.694;2022-07-21T01:16:38;2.92;;;2.45;;
33844;SDS011;20145;43.118;25.694;2022-07-21T01:19:05;2.35;;;2.00;;
33844;SDS011;20145;43.118;25.694;2022-07-21T01:21:36;5.32;;;2.25;;
33844;SDS011;20145;43.118;25.694;2022-07-21T01:24:04;4.10;;;2.30;;
33844;SDS011;20145;43.118;25.694;2022-07-21T01:26:30;4.05;;;2.03;;
33844;SDS011;20145;43.118;25.694;2022-07-21T01:29:04;4.88;;;2.25;;
33844;SDS011;20145;43.118;25.694;2022-07-21T01:31:29;4.80;;;2.13;;
33844;SDS011;20145;43.118;25.694;2022-07-21T01:33:55;4.13;;;1.98;;
33844;SDS011;20145;43.118;25.694;2022-07-21T01:36:21;3.83;;;1.95;;
33844;SDS011;20145;43.118;25.694;2022-07-21T01:38:46;3.67;;;2.30;;
33844;SDS011;20145;43.118;25.694;2022-07-21T01:41:31;7.45;;;2.40;;
33844;SDS011;20145;43.118;25.694;2022-07-21T01:43:59;5.95;;;2.42;;
33844;SDS011;20145;43.118;25.694;2022-07-21T01:46:27;8.05;;;2.42;;
33844;SDS011;20145;43.118;25.694;2022-07-21T01:48:55;4.78;;;2.38;;
33844;SDS011;20145;43.118;25.694;2022-07-21T01:51:21;5.18;;;2.00;;
33844;SDS011;20145;43.118;25.694;2022-07-21T01:53:47;3.45;;;2.15;;
33844;SDS011;20145;43.118;25.694;2022-07-21T01:56:13;3.90;;;2.10;;
33844;SDS011;20145;43.118;25.694;2022-07-21T01:58:38;2.78;;;2.20;;
33844;SDS011;20145;43.118;25.694;2022-07-21T02:01:04;2.70;;;2.30;;
33844;SDS011;20145;43.118;25.694;2022-07-21T02:03:30;2.30;;;2.10;;
33844;SDS011;20145;43.118;25.694;2022-07-21T02:06:05;3.95;;;2.40;;
33844;SDS011;20145;43.118;25.694;2022-07-21T02:08:32;3.22;;;2.10;;
33844;SDS011;20145;43.118;25.694;2022-07-21T02:10:58;7.88;;;2.20;;
33844;SDS011;20145;43.118;25.694;2022-07-21T02:13:24;6.18;;;2.40;;
33844;SDS011;20145;43.118;25.694;2022-07-21T02:15:49;6.72;;;2.75;;
33844;SDS011;20145;43.118;25.694;2022-07-21T02:18:15;4.60;;;2.70;;
33844;SDS011;20145;43.118;25.694;2022-07-21T02:20:41;5.65;;;2.60;;
33844;SDS011;20145;43.118;25.694;2022-07-21T02:23:07;4.40;;;2.90;;
33844;SDS011;20145;43.118;25.694;2022-07-21T02:25:32;3.97;;;2.10;;
33844;SDS011;20145;43.118;25.694;2022-07-21T02:27:58;2.60;;;2.40;;
33844;SDS011;20145;43.118;25.694;2022-07-21T02:30:24;4.20;;;2.22;;
33844;SDS011;20145;43.118;25.694;2022-07-21T02:32:49;6.15;;;2.58;;
33844;SDS011;20145;43.118;25.694;2022-07-21T02:35:15;5.40;;;2.20;;
33844;SDS011;20145;43.118;25.694;2022-07-21T02:37:41;5.28;;;2.80;;
33844;SDS011;20145;43.118;25.694;2022-07-21T02:40:07;5.50;;;2.60;;
33844;SDS011;20145;43.118;25.694;2022-07-21T02:42:32;3.13;;;2.33;;
33844;SDS011;20145;43.118;25.694;2022-07-21T02:44:58;8.32;;;2.97;;
33844;SDS011;20145;43.118;25.694;2022-07-21T02:47:24;3.83;;;2.35;;
33844;SDS011;20145;43.118;25.694;2022-07-21T02:49:49;4.03;;;2.75;;
33844;SDS011;20145;43.118;25.694;2022-07-21T02:52:15;7.13;;;3.67;;
33844;SDS011;20145;43.118;25.694;2022-07-21T02:54:40;7.00;;;2.72;;
33844;SDS011;20145;43.118;25.694;2022-07-21T02:57:06;5.25;;;2.42;;
33844;SDS011;20145;43.118;25.694;2022-07-21T02:59:31;6.35;;;2.60;;
33844;SDS011;20145;43.118;25.694;2022-07-21T03:01:57;5.40;;;2.67;;
33844;SDS011;20145;43.118;25.694;2022-07-21T03:04:22;3.70;;;2.72;;
33844;SDS011;20145;43.118;25.694;2022-07-21T03:06:48;4.75;;;2.85;;
33844;SDS011;20145;43.118;25.694;2022-07-21T03:09:14;6.45;;;2.70;;
33844;SDS011;20145;43.118;25.694;2022-07-21T03:11:39;8.73;;;2.95;;
33844;SDS011;20145;43.118;25.694;2022-07-21T03:14:05;5.00;;;3.13;;
33844;SDS011;20145;43.118;25.694;2022-07-21T03:16:30;8.57;;;3.45;;
33844;SDS011;20145;43.118;25.694;2022-07-21T03:18:56;4.38;;;2.58;;
33844;SDS011;20145;43.118;25.694;2022-07-21T03:21:22;6.35;;;2.80;;
33844;SDS011;20145;43.118;25.694;2022-07-21T03:23:48;3.85;;;2.28;;
33844;SDS011;20145;43.118;25.694;2022-07-21T03:26:14;7.47;;;2.75;;
33844;SDS011;20145;43.118;25.694;2022-07-21T03:28:43;2.97;;;2.33;;
33844;SDS011;20145;43.118;25.694;2022-07-21T03:31:09;4.85;;;2.90;;
33844;SDS011;20145;43.118;25.694;2022-07-21T03:33:35;2.80;;;2.35;;
33844;SDS011;20145;43.118;25.694;2022-07-21T03:36:01;2.92;;;2.30;;
33844;SDS011;20145;43.118;25.694;2022-07-21T03:38:27;2.42;;;2.10;;
33844;SDS011;20145;43.118;25.694;2022-07-21T03:40:53;3.33;;;2.42;;
33844;SDS011;20145;43.118;25.694;2022-07-21T03:43:19;7.85;;;2.63;;
33844;SDS011;20145;43.118;25.694;2022-07-21T03:45:45;8.32;;;3.75;;
33844;SDS011;20145;43.118;25.694;2022-07-21T03:48:11;7.20;;;4.07;;
33844;SDS011;20145;43.118;25.694;2022-07-21T03:50:37;17.58;;;4.50;;
33844;SDS011;20145;43.118;25.694;2022-07-21T03:53:05;16.33;;;4.63;;
33844;SDS011;20145;43.118;25.694;2022-07-21T03:55:32;18.92;;;5.03;;
33844;SDS011;20145;43.118;25.694;2022-07-21T03:58:00;14.70;;;5.45;;
33844;SDS011;20145;43.118;25.694;2022-07-21T04:02:57;13.57;;;5.22;;
33844;SDS011;20145;43.118;25.694;2022-07-21T04:05:23;37.50;;;8.40;;
33844;SDS011;20145;43.118;25.694;2022-07-21T04:07:50;15.55;;;4.82;;
33844;SDS011;20145;43.118;25.694;2022-07-21T04:10:17;21.30;;;6.20;;
33844;SDS011;20145;43.118;25.694;2022-07-21T04:12:45;11.98;;;5.50;;
33844;SDS011;20145;43.118;25.694;2022-07-21T04:15:11;27.02;;;6.45;;
33844;SDS011;20145;43.118;25.694;2022-07-21T04:17:37;16.50;;;5.35;;
33844;SDS011;20145;43.118;25.694;2022-07-21T04:20:04;15.60;;;5.45;;
33844;SDS011;20145;43.118;25.694;2022-07-21T04:22:31;24.42;;;5.35;;
33844;SDS011;20145;43.118;25.694;2022-07-21T04:24:58;13.80;;;5.22;;
33844;SDS011;20145;43.118;25.694;2022-07-21T04:27:25;23.75;;;4.93;;
33844;SDS011;20145;43.118;25.694;2022-07-21T04:29:51;21.63;;;5.63;;
33844;SDS011;20145;43.118;25.694;2022-07-21T04:32:17;21.48;;;5.80;;
33844;SDS011;20145;43.118;25.694;2022-07-21T04:34:42;12.32;;;4.47;;
33844;SDS011;20145;43.118;25.694;2022-07-21T04:37:08;7.75;;;4.90;;
33844;SDS011;20145;43.118;25.694;2022-07-21T04:39:34;11.65;;;4.88;;
33844;SDS011;20145;43.118;25.694;2022-07-21T04:41:59;13.68;;;4.60;;
33844;SDS011;20145;43.118;25.694;2022-07-21T04:44:25;16.08;;;4.93;;
33844;SDS011;20145;43.118;25.694;2022-07-21T04:46:50;11.45;;;4.78;;
33844;SDS011;20145;43.118;25.694;2022-07-21T04:49:16;11.68;;;4.70;;
33844;SDS011;20145;43.118;25.694;2022-07-21T04:51:42;16.38;;;5.03;;
33844;SDS011;20145;43.118;25.694;2022-07-21T04:54:08;12.68;;;4.80;;
33844;SDS011;20145;43.118;25.694;2022-07-21T04:56:33;15.55;;;4.70;;
33844;SDS011;20145;43.118;25.694;2022-07-21T04:59:00;13.93;;;4.07;;
33844;SDS011;20145;43.118;25.694;2022-07-21T05:01:26;10.38;;;4.60;;
33844;SDS011;20145;43.118;25.694;2022-07-21T05:03:52;11.55;;;4.35;;
33844;SDS011;20145;43.118;25.694;2022-07-21T05:06:18;12.52;;;3.83;;
33844;SDS011;20145;43.118;25.694;2022-07-21T05:08:44;9.13;;;4.03;;
33844;SDS011;20145;43.118;25.694;2022-07-21T05:11:09;22.13;;;4.32;;
33844;SDS011;20145;43.118;25.694;2022-07-21T05:13:36;18.38;;;4.65;;
33844;SDS011;20145;43.118;25.694;2022-07-21T05:16:01;13.75;;;3.70;;
33844;SDS011;20145;43.118;25.694;2022-07-21T05:18:27;19.98;;;3.90;;
33844;SDS011;20145;43.118;25.694;2022-07-21T05:20:52;15.00;;;3.70;;
33844;SDS011;20145;43.118;25.694;2022-07-21T05:23:18;4.38;;;2.58;;
33844;SDS011;20145;43.118;25.694;2022-07-21T05:25:43;12.52;;;3.03;;
33844;SDS011;20145;43.118;25.694;2022-07-21T05:28:09;4.00;;;2.53;;
33844;SDS011;20145;43.118;25.694;2022-07-21T05:30:35;4.20;;;2.17;;
33844;SDS011;20145;43.118;25.694;2022-07-21T05:33:00;5.38;;;2.58;;
33844;SDS011;20145;43.118;25.694;2022-07-21T05:35:27;7.85;;;3.83;;
33844;SDS011;20145;43.118;25.694;2022-07-21T05:37:53;7.25;;;3.03;;
33844;SDS011;20145;43.118;25.694;2022-07-21T05:40:18;6.22;;;3.35;;
33844;SDS011;20145;43.118;25.694;2022-07-21T05:42:44;5.18;;;3.38;;
33844;SDS011;20145;43.118;25.694;2022-07-21T05:45:10;16.77;;;3.33;;
33844;SDS011;20145;43.118;25.694;2022-07-21T05:47:37;10.20;;;3.33;;
33844;SDS011;20145;43.118;25.694;2022-07-21T05:50:03;6.00;;;2.90;;
33844;SDS011;20145;43.118;25.694;2022-07-21T05:52:29;8.35;;;3.08;;
33844;SDS011;20145;43.118;25.694;2022-07-21T05:54:55;7.03;;;2.70;;
33844;SDS011;20145;43.118;25.694;2022-07-21T05:57:20;6.75;;;2.90;;
33844;SDS011;20145;43.118;25.694;2022-07-21T05:59:46;9.25;;;2.80;;
33844;SDS011;20145;43.118;25.694;2022-07-21T06:02:12;7.20;;;2.72;;
33844;SDS011;20145;43.118;25.694;2022-07-21T06:04:37;8.82;;;2.92;;
33844;SDS011;20145;43.118;25.694;2022-07-21T06:07:03;2.92;;;2.63;;
33844;SDS011;20145;43.118;25.694;2022-07-21T06:09:29;5.25;;;2.95;;
33844;SDS011;20145;43.118;25.694;2022-07-21T06:11:54;6.10;;;2.90;;
33844;SDS011;20145;43.118;25.694;2022-07-21T06:14:20;7.43;;;3.03;;
33844;SDS011;20145;43.118;25.694;2022-07-21T06:16:46;11.02;;;3.20;;
33844;SDS011;20145;43.118;25.694;2022-07-21T06:19:12;12.75;;;3.20;;
33844;SDS011;20145;43.118;25.694;2022-07-21T06:21:37;7.03;;;3.05;;
33844;SDS011;20145;43.118;25.694;2022-07-21T06:24:03;7.18;;;2.78;;
33844;SDS011;20145;43.118;25.694;2022-07-21T06:26:29;10.18;;;2.90;;
33844;SDS011;20145;43.118;25.694;2022-07-21T06:28:54;9.20;;;3.05;;
33844;SDS011;20145;43.118;25.694;2022-07-21T06:31:20;11.90;;;3.10;;
33844;SDS011;20145;43.118;25.694;2022-07-21T06:33:46;6.25;;;3.22;;
33844;SDS011;20145;43.118;25.694;2022-07-21T06:36:11;6.53;;;2.70;;
33844;SDS011;20145;43.118;25.694;2022-07-21T06:38:37;6.82;;;3.30;;
33844;SDS011;20145;43.118;25.694;2022-07-21T06:41:03;8.90;;;2.60;;
33844;SDS011;20145;43.118;25.694;2022-07-21T06:43:28;6.53;;;2.45;;
33844;SDS011;20145;43.118;25.694;2022-07-21T06:45:54;5.03;;;3.13;;
33844;SDS011;20145;43.118;25.694;2022-07-21T06:48:20;7.97;;;2.75;;
33844;SDS011;20145;43.118;25.694;2022-07-21T06:50:49;7.00;;;2.65;;
33844;SDS011;20145;43.118;25.694;2022-07-21T06:53:16;8.80;;;3.08;;
33844;SDS011;20145;43.118;25.694;2022-07-21T06:55:42;11.48;;;2.92;;
33844;SDS011;20145;43.118;25.694;2022-07-21T06:58:09;6.60;;;2.63;;
33844;SDS011;20145;43.118;25.694;2022-07-21T07:00:38;6.35;;;2.85;;
33844;SDS011;20145;43.118;25.694;2022-07-21T07:03:04;3.10;;;2.20;;
33844;SDS011;20145;43.118;25.694;2022-07-21T07:05:30;6.07;;;2.47;;
33844;SDS011;20145;43.118;25.694;2022-07-21T07:07:56;3.90;;;2.33;;
33844;SDS011;20145;43.118;25.694;2022-07-21T07:10:22;5.10;;;2.38;;
33844;SDS011;20145;43.118;25.694;2022-07-21T07:12:51;3.70;;;2.65;;
33844;SDS011;20145;43.118;25.694;2022-07-21T07:15:21;7.40;;;2.65;;
33844;SDS011;20145;43.118;25.694;2022-07-21T07:17:48;8.13;;;2.70;;
33844;SDS011;20145;43.118;25.694;2022-07-21T07:20:14;3.95;;;2.50;;
33844;SDS011;20145;43.118;25.694;2022-07-21T07:22:39;3.75;;;2.50;;
33844;SDS011;20145;43.118;25.694;2022-07-21T07:25:05;5.32;;;2.72;;
33844;SDS011;20145;43.118;25.694;2022-07-21T07:27:32;4.38;;;2.50;;
33844;SDS011;20145;43.118;25.694;2022-07-21T07:29:57;4.38;;;2.80;;
33844;SDS011;20145;43.118;25.694;2022-07-21T07:32:23;4.28;;;2.67;;
33844;SDS011;20145;43.118;25.694;2022-07-21T07:34:49;5.72;;;3.13;;
33844;SDS011;20145;43.118;25.694;2022-07-21T07:37:14;3.70;;;2.65;;
33844;SDS011;20145;43.118;25.694;2022-07-21T07:39:40;6.22;;;2.92;;
33844;SDS011;20145;43.118;25.694;2022-07-21T07:42:06;4.93;;;3.05;;
33844;SDS011;20145;43.118;25.694;2022-07-21T07:44:32;5.18;;;2.53;;
33844;SDS011;20145;43.118;25.694;2022-07-21T07:46:58;6.68;;;2.72;;
33844;SDS011;20145;43.118;25.694;2022-07-21T07:49:27;7.50;;;2.80;;
33844;SDS011;20145;43.118;25.694;2022-07-21T07:51:56;5.57;;;2.35;;
33844;SDS011;20145;43.118;25.694;2022-07-21T07:54:22;6.03;;;2.70;;
33844;SDS011;20145;43.118;25.694;2022-07-21T07:56:49;4.65;;;2.50;;
33844;SDS011;20145;43.118;25.694;2022-07-21T07:59:14;11.05;;;3.05;;
33844;SDS011;20145;43.118;25.694;2022-07-21T08:01:40;6.40;;;2.22;;
33844;SDS011;20145;43.118;25.694;2022-07-21T08:04:06;6.20;;;2.75;;
33844;SDS011;20145;43.118;25.694;2022-07-21T08:06:32;8.48;;;3.30;;
33844;SDS011;20145;43.118;25.694;2022-07-21T08:08:57;7.32;;;2.53;;
33844;SDS011;20145;43.118;25.694;2022-07-21T08:11:24;3.92;;;2.50;;
33844;SDS011;20145;43.118;25.694;2022-07-21T08:13:50;5.85;;;2.53;;
33844;SDS011;20145;43.118;25.694;2022-07-21T08:16:17;4.22;;;2.33;;
33844;SDS011;20145;43.118;25.694;2022-07-21T08:18:42;6.03;;;3.05;;
33844;SDS011;20145;43.118;25.694;2022-07-21T08:21:08;5.75;;;3.00;;
33844;SDS011;20145;43.118;25.694;2022-07-21T08:23:34;10.15;;;2.92;;
33844;SDS011;20145;43.118;25.694;2022-07-21T08:26:00;4.18;;;2.80;;
33844;SDS011;20145;43.118;25.694;2022-07-21T08:28:26;5.60;;;2.80;;
33844;SDS011;20145;43.118;25.694;2022-07-21T08:30:51;5.65;;;2.58;;
33844;SDS011;20145;43.118;25.694;2022-07-21T08:33:17;8.02;;;2.67;;
33844;SDS011;20145;43.118;25.694;2022-07-21T08:35:43;4.93;;;3.10;;
33844;SDS011;20145;43.118;25.694;2022-07-21T08:38:09;4.88;;;2.80;;
33844;SDS011;20145;43.118;25.694;2022-07-21T08:40:39;6.63;;;3.08;;
33844;SDS011;20145;43.118;25.694;2022-07-21T08:43:07;7.10;;;3.10;;
33844;SDS011;20145;43.118;25.694;2022-07-21T08:45:34;11.95;;;3.20;;
33844;SDS011;20145;43.118;25.694;2022-07-21T08:48:00;11.25;;;3.17;;
33844;SDS011;20145;43.118;25.694;2022-07-21T08:50:27;4.78;;;3.17;;
33844;SDS011;20145;43.118;25.694;2022-07-21T08:52:55;9.05;;;2.90;;
33844;SDS011;20145;43.118;25.694;2022-07-21T08:55:21;7.38;;;3.55;;
33844;SDS011;20145;43.118;25.694;2022-07-21T08:57:47;15.18;;;3.70;;
33844;SDS011;20145;43.118;25.694;2022-07-21T09:00:13;7.35;;;3.03;;
33844;SDS011;20145;43.118;25.694;2022-07-21T09:02:39;5.88;;;3.67;;
33844;SDS011;20145;43.118;25.694;2022-07-21T09:05:05;6.03;;;3.22;;
33844;SDS011;20145;43.118;25.694;2022-07-21T09:07:48;4.70;;;2.88;;
33844;SDS011;20145;43.118;25.694;2022-07-21T09:10:16;5.00;;;2.88;;
33844;SDS011;20145;43.118;25.694;2022-07-21T09:12:52;3.40;;;3.10;;
33844;SDS011;20145;43.118;25.694;2022-07-21T09:15:24;8.85;;;3.25;;
33844;SDS011;20145;43.118;25.694;2022-07-21T09:20:36;7.43;;;3.30;;
33844;SDS011;20145;43.118;25.694;2022-07-21T09:23:06;7.28;;;5.05;;
33844;SDS011;20145;43.118;25.694;2022-07-21T09:28:20;6.47;;;2.80;;
33844;SDS011;20145;43.118;25.694;2022-07-21T09:33:32;4.05;;;3.00;;
33844;SDS011;20145;43.118;25.694;2022-07-21T09:38:33;8.32;;;3.13;;
33844;SDS011;20145;43.118;25.694;2022-07-21T09:41:04;5.65;;;3.05;;
33844;SDS011;20145;43.118;25.694;2022-07-21T09:43:32;7.88;;;2.95;;
33844;SDS011;20145;43.118;25.694;2022-07-21T09:46:09;6.50;;;2.70;;
33844;SDS011;20145;43.118;25.694;2022-07-21T09:48:37;4.65;;;2.88;;
33844;SDS011;20145;43.118;25.694;2022-07-21T09:51:23;6.07;;;2.50;;
33844;SDS011;20145;43.118;25.694;2022-07-21T09:56:32;7.18;;;3.17;;
33844;SDS011;20145;43.118;25.694;2022-07-21T10:01:37;3.10;;;2.47;;
33844;SDS011;20145;43.118;25.694;2022-07-21T10:04:03;4.53;;;2.80;;
33844;SDS011;20145;43.118;25.694;2022-07-21T10:06:32;5.18;;;3.00;;
33844;SDS011;20145;43.118;25.694;2022-07-21T10:09:01;6.13;;;2.97;;
33844;SDS011;20145;43.118;25.694;2022-07-21T10:11:29;7.63;;;3.55;;
33844;SDS011;20145;43.118;25.694;2022-07-21T10:13:55;12.38;;;3.13;;
33844;SDS011;20145;43.118;25.694;2022-07-21T10:16:20;4.18;;;2.63;;
33844;SDS011;20145;43.118;25.694;2022-07-21T10:24:19;3.67;;;2.75;;
33844;SDS011;20145;43.118;25.694;2022-07-21T10:29:49;4.68;;;2.50;;
33844;SDS011;20145;43.118;25.694;2022-07-21T10:32:18;9.38;;;3.05;;
33844;SDS011;20145;43.118;25.694;2022-07-21T10:34:46;6.93;;;2.83;;
33844;SDS011;20145;43.118;25.694;2022-07-21T10:40:04;9.57;;;2.95;;
33844;SDS011;20145;43.118;25.694;2022-07-21T10:45:34;3.33;;;2.40;;
33844;SDS011;20145;43.118;25.694;2022-07-21T10:48:03;3.33;;;2.40;;
33844;SDS011;20145;43.118;25.694;2022-07-21T10:50:34;3.45;;;2.45;;
33844;SDS011;20145;43.118;25.694;2022-07-21T10:53:13;3.20;;;2.17;;
33844;SDS011;20145;43.118;25.694;2022-07-21T10:55:53;5.60;;;2.40;;
33844;SDS011;20145;43.118;25.694;2022-07-21T11:03:26;8.07;;;2.40;;
33844;SDS011;20145;43.118;25.694;2022-07-21T11:08:37;5.75;;;2.80;;
33844;SDS011;20145;43.118;25.694;2022-07-21T11:11:18;3.38;;;2.45;;
33844;SDS011;20145;43.118;25.694;2022-07-21T11:19:05;5.40;;;2.70;;
33844;SDS011;20145;43.118;25.694;2022-07-21T11:21:51;5.45;;;2.63;;
33844;SDS011;20145;43.118;25.694;2022-07-21T11:24:20;3.75;;;2.30;;
33844;SDS011;20145;43.118;25.694;2022-07-21T11:29:40;4.50;;;2.55;;
33844;SDS011;20145;43.118;25.694;2022-07-21T11:32:07;6.18;;;2.70;;
33844;SDS011;20145;43.118;25.694;2022-07-21T11:40:00;5.80;;;2.63;;
33844;SDS011;20145;43.118;25.694;2022-07-21T11:42:26;3.95;;;1.88;;
33844;SDS011;20145;43.118;25.694;2022-07-21T11:44:53;6.05;;;2.28;;
33844;SDS011;20145;43.118;25.694;2022-07-21T11:47:19;4.70;;;2.17;;
33844;SDS011;20145;43.118;25.694;2022-07-21T11:49:51;9.35;;;2.22;;
33844;SDS011;20145;43.118;25.694;2022-07-21T11:52:18;4.25;;;2.40;;
33844;SDS011;20145;43.118;25.694;2022-07-21T11:54:51;3.05;;;2.33;;
33844;SDS011;20145;43.118;25.694;2022-07-21T11:57:18;8.48;;;3.33;;
33844;SDS011;20145;43.118;25.694;2022-07-21T11:59:46;3.53;;;2.33;;
33844;SDS011;20145;43.118;25.694;2022-07-21T12:09:41;6.82;;;2.55;;
33844;SDS011;20145;43.118;25.694;2022-07-21T12:12:08;6.70;;;2.45;;
33844;SDS011;20145;43.118;25.694;2022-07-21T12:14:41;2.80;;;2.10;;
33844;SDS011;20145;43.118;25.694;2022-07-21T12:17:15;3.33;;;2.10;;
33844;SDS011;20145;43.118;25.694;2022-07-21T12:19:42;4.03;;;2.25;;
33844;SDS011;20145;43.118;25.694;2022-07-21T12:22:08;4.13;;;2.50;;
33844;SDS011;20145;43.118;25.694;2022-07-21T12:24:47;3.63;;;2.65;;
33844;SDS011;20145;43.118;25.694;2022-07-21T12:27:17;3.95;;;2.53;;
33844;SDS011;20145;43.118;25.694;2022-07-21T12:29:43;6.45;;;4.95;;
33844;SDS011;20145;43.118;25.694;2022-07-21T12:32:09;4.47;;;2.22;;
33844;SDS011;20145;43.118;25.694;2022-07-21T12:34:56;5.63;;;3.50;;
33844;SDS011;20145;43.118;25.694;2022-07-21T12:37:21;5.20;;;3.10;;
33844;SDS011;20145;43.118;25.694;2022-07-21T12:40:02;8.50;;;2.70;;
33844;SDS011;20145;43.118;25.694;2022-07-21T12:42:33;4.63;;;2.38;;
33844;SDS011;20145;43.118;25.694;2022-07-21T12:45:00;2.80;;;2.30;;
33844;SDS011;20145;43.118;25.694;2022-07-21T12:47:39;4.25;;;2.40;;
33844;SDS011;20145;43.118;25.694;2022-07-21T12:50:06;5.60;;;2.20;;
33844;SDS011;20145;43.118;25.694;2022-07-21T12:52:34;3.92;;;2.35;;
33844;SDS011;20145;43.118;25.694;2022-07-21T12:55:00;8.32;;;2.63;;
33844;SDS011;20145;43.118;25.694;2022-07-21T12:57:26;4.45;;;2.60;;
33844;SDS011;20145;43.118;25.694;2022-07-21T12:59:53;5.55;;;2.70;;
33844;SDS011;20145;43.118;25.694;2022-07-21T13:02:20;4.22;;;2.40;;
33844;SDS011;20145;43.118;25.694;2022-07-21T13:04:45;4.80;;;2.53;;
33844;SDS011;20145;43.118;25.694;2022-07-21T13:07:11;5.35;;;2.80;;
33844;SDS011;20145;43.118;25.694;2022-07-21T13:09:37;5.90;;;2.53;;
33844;SDS011;20145;43.118;25.694;2022-07-21T13:12:03;4.30;;;2.30;;
33844;SDS011;20145;43.118;25.694;2022-07-21T13:14:30;4.38;;;2.40;;
33844;SDS011;20145;43.118;25.694;2022-07-21T13:16:56;8.30;;;2.72;;
33844;SDS011;20145;43.118;25.694;2022-07-21T13:19:25;3.03;;;2.40;;
33844;SDS011;20145;43.118;25.694;2022-07-21T13:21:51;6.68;;;2.47;;
33844;SDS011;20145;43.118;25.694;2022-07-21T13:24:18;5.50;;;2.38;;
33844;SDS011;20145;43.118;25.694;2022-07-21T13:26:44;9.30;;;2.38;;
33844;SDS011;20145;43.118;25.694;2022-07-21T13:29:10;3.65;;;2.20;;
33844;SDS011;20145;43.118;25.694;2022-07-21T13:31:35;5.45;;;3.25;;
33844;SDS011;20145;43.118;25.694;2022-07-21T13:34:02;6.88;;;3.00;;
33844;SDS011;20145;43.118;25.694;2022-07-21T13:36:31;5.85;;;2.65;;
33844;SDS011;20145;43.118;25.694;2022-07-21T13:38:57;5.05;;;2.22;;
33844;SDS011;20145;43.118;25.694;2022-07-21T13:41:24;4.28;;;2.28;;
33844;SDS011;20145;43.118;25.694;2022-07-21T13:43:50;3.50;;;2.40;;
33844;SDS011;20145;43.118;25.694;2022-07-21T13:46:15;5.25;;;2.40;;
33844;SDS011;20145;43.118;25.694;2022-07-21T13:48:42;6.90;;;2.70;;
33844;SDS011;20145;43.118;25.694;2022-07-21T13:51:08;3.83;;;2.35;;
33844;SDS011;20145;43.118;25.694;2022-07-21T13:53:34;6.47;;;2.72;;
33844;SDS011;20145;43.118;25.694;2022-07-21T13:56:00;4.60;;;2.75;;
33844;SDS011;20145;43.118;25.694;2022-07-21T13:58:25;3.05;;;2.35;;
33844;SDS011;20145;43.118;25.694;2022-07-21T14:00:51;7.20;;;2.78;;
33844;SDS011;20145;43.118;25.694;2022-07-21T14:03:18;3.45;;;2.40;;
33844;SDS011;20145;43.118;25.694;2022-07-21T14:05:44;4.75;;;2.30;;
33844;SDS011;20145;43.118;25.694;2022-07-21T14:08:09;5.90;;;2.28;;
33844;SDS011;20145;43.118;25.694;2022-07-21T14:10:35;7.55;;;2.75;;
33844;SDS011;20145;43.118;25.694;2022-07-21T14:13:01;4.13;;;2.60;;
33844;SDS011;20145;43.118;25.694;2022-07-21T14:15:27;4.53;;;2.25;;
33844;SDS011;20145;43.118;25.694;2022-07-21T14:17:52;4.68;;;3.10;;
33844;SDS011;20145;43.118;25.694;2022-07-21T14:20:18;3.00;;;2.20;;
33844;SDS011;20145;43.118;25.694;2022-07-21T14:22:44;6.22;;;2.45;;
33844;SDS011;20145;43.118;25.694;2022-07-21T14:25:10;6.03;;;2.60;;
33844;SDS011;20145;43.118;25.694;2022-07-21T14:27:45;4.78;;;2.45;;
33844;SDS011;20145;43.118;25.694;2022-07-21T14:30:15;5.95;;;2.83;;
33844;SDS011;20145;43.118;25.694;2022-07-21T14:32:43;4.35;;;2.92;;
33844;SDS011;20145;43.118;25.694;2022-07-21T14:35:09;7.85;;;2.55;;
33844;SDS011;20145;43.118;25.694;2022-07-21T14:37:35;6.82;;;2.65;;
33844;SDS011;20145;43.118;25.694;2022-07-21T14:40:01;6.97;;;2.63;;
33844;SDS011;20145;43.118;25.694;2022-07-21T14:42:27;5.88;;;2.97;;
33844;SDS011;20145;43.118;25.694;2022-07-21T14:44:53;6.68;;;2.92;;
33844;SDS011;20145;43.118;25.694;2022-07-21T14:47:19;7.00;;;2.83;;
33844;SDS011;20145;43.118;25.694;2022-07-21T14:49:44;4.28;;;2.67;;
33844;SDS011;20145;43.118;25.694;2022-07-21T14:52:10;5.38;;;2.67;;
33844;SDS011;20145;43.118;25.694;2022-07-21T14:54:36;5.43;;;2.67;;
33844;SDS011;20145;43.118;25.694;2022-07-21T14:57:02;6.80;;;2.90;;
33844;SDS011;20145;43.118;25.694;2022-07-21T14:59:30;5.05;;;3.17;;
33844;SDS011;20145;43.118;25.694;2022-07-21T15:01:56;6.53;;;3.13;;
33844;SDS011;20145;43.118;25.694;2022-07-21T15:04:22;3.83;;;3.03;;
33844;SDS011;20145;43.118;25.694;2022-07-21T15:06:47;5.82;;;2.95;;
33844;SDS011;20145;43.118;25.694;2022-07-21T15:09:14;5.13;;;2.80;;
33844;SDS011;20145;43.118;25.694;2022-07-21T15:11:40;9.77;;;3.05;;
33844;SDS011;20145;43.118;25.694;2022-07-21T15:14:06;6.45;;;2.90;;
33844;SDS011;20145;43.118;25.694;2022-07-21T15:16:31;4.75;;;2.47;;
33844;SDS011;20145;43.118;25.694;2022-07-21T15:18:57;5.65;;;2.60;;
33844;SDS011;20145;43.118;25.694;2022-07-21T15:21:22;4.03;;;2.70;;
33844;SDS011;20145;43.118;25.694;2022-07-21T15:23:48;5.03;;;2.58;;
33844;SDS011;20145;43.118;25.694;2022-07-21T15:26:14;8.85;;;3.20;;
33844;SDS011;20145;43.118;25.694;2022-07-21T15:28:39;6.40;;;2.75;;
33844;SDS011;20145;43.118;25.694;2022-07-21T15:31:05;3.63;;;2.60;;
33844;SDS011;20145;43.118;25.694;2022-07-21T15:33:30;4.60;;;2.63;;